sensor_id;sensor_type;location;lat;lon;timestamp;P1;durP1;ratioP1;P2;durP2;ratioP2
69226;SDS011;56334;52.398;7.552;2023-09-30T00:00:46;13.05;;;4.00;;
69226;SDS011;56334;52.398;7.552;2023-09-30T00:03:12;14.52;;;3.55;;
69226;SDS011;56334;52.398;7.552;2023-09-30T00:05:38;17.02;;;3.85;;
69226;SDS011;56334;52.398;7.552;2023-09-30T00:08:04;16.35;;;4.03;;
69226;SDS011;56334;52.398;7.552;2023-09-30T00:12:57;15.70;;;3.70;;
69226;SDS011;56334;52.398;7.552;2023-09-30T00:15:26;14.88;;;3.33;;
69226;SDS011;56334;52.398;7.552;2023-09-30T00:17:52;15.00;;;3.30;;
69226;SDS011;56334;52.398;7.552;2023-09-30T00:20:19;15.13;;;3.72;;
69226;SDS011;56334;52.398;7.552;2023-09-30T00:22:46;13.90;;;3.40;;
69226;SDS011;56334;52.398;7.552;2023-09-30T00:25:12;13.75;;;3.05;;
69226;SDS011;56334;52.398;7.552;2023-09-30T00:27:38;13.82;;;3.38;;
69226;SDS011;56334;52.398;7.552;2023-09-30T00:30:04;14.70;;;3.67;;
69226;SDS011;56334;52.398;7.552;2023-09-30T00:32:31;12.43;;;3.17;;
69226;SDS011;56334;52.398;7.552;2023-09-30T00:34:58;13.57;;;3.40;;
69226;SDS011;56334;52.398;7.552;2023-09-30T00:37:24;15.90;;;3.47;;
69226;SDS011;56334;52.398;7.552;2023-09-30T00:39:50;13.77;;;3.55;;
69226;SDS011;56334;52.398;7.552;2023-09-30T00:42:16;13.80;;;3.22;;
69226;SDS011;56334;52.398;7.552;2023-09-30T00:44:43;16.85;;;3.85;;
69226;SDS011;56334;52.398;7.552;2023-09-30T00:47:09;20.08;;;4.20;;
69226;SDS011;56334;52.398;7.552;2023-09-30T00:49:35;16.33;;;3.83;;
69226;SDS011;56334;52.398;7.552;2023-09-30T00:52:01;16.60;;;3.55;;
69226;SDS011;56334;52.398;7.552;2023-09-30T00:54:28;16.95;;;3.90;;
69226;SDS011;56334;52.398;7.552;2023-09-30T00:56:55;13.73;;;3.58;;
69226;SDS011;56334;52.398;7.552;2023-09-30T00:59:21;20.23;;;3.33;;
69226;SDS011;56334;52.398;7.552;2023-09-30T01:01:50;16.85;;;3.60;;
69226;SDS011;56334;52.398;7.552;2023-09-30T01:04:17;15.48;;;3.90;;
69226;SDS011;56334;52.398;7.552;2023-09-30T01:06:43;14.23;;;3.22;;
69226;SDS011;56334;52.398;7.552;2023-09-30T01:09:09;12.63;;;3.63;;
69226;SDS011;56334;52.398;7.552;2023-09-30T01:11:39;15.05;;;4.05;;
69226;SDS011;56334;52.398;7.552;2023-09-30T01:16:50;18.23;;;4.10;;
69226;SDS011;56334;52.398;7.552;2023-09-30T01:19:16;15.68;;;3.88;;
69226;SDS011;56334;52.398;7.552;2023-09-30T01:21:43;14.95;;;3.83;;
69226;SDS011;56334;52.398;7.552;2023-09-30T01:24:13;12.48;;;3.10;;
69226;SDS011;56334;52.398;7.552;2023-09-30T01:26:39;15.77;;;3.72;;
69226;SDS011;56334;52.398;7.552;2023-09-30T01:29:07;13.52;;;3.35;;
69226;SDS011;56334;52.398;7.552;2023-09-30T01:31:36;16.58;;;3.90;;
69226;SDS011;56334;52.398;7.552;2023-09-30T01:34:02;16.17;;;3.75;;
69226;SDS011;56334;52.398;7.552;2023-09-30T01:36:28;14.57;;;3.45;;
69226;SDS011;56334;52.398;7.552;2023-09-30T01:38:54;15.70;;;3.70;;
69226;SDS011;56334;52.398;7.552;2023-09-30T01:41:20;13.93;;;3.30;;
69226;SDS011;56334;52.398;7.552;2023-09-30T01:43:46;15.20;;;4.13;;
69226;SDS011;56334;52.398;7.552;2023-09-30T01:46:12;13.07;;;3.70;;
69226;SDS011;56334;52.398;7.552;2023-09-30T01:48:38;14.77;;;4.03;;
69226;SDS011;56334;52.398;7.552;2023-09-30T01:51:04;17.92;;;3.80;;
69226;SDS011;56334;52.398;7.552;2023-09-30T01:53:31;15.93;;;4.03;;
69226;SDS011;56334;52.398;7.552;2023-09-30T01:55:57;11.55;;;3.67;;
69226;SDS011;56334;52.398;7.552;2023-09-30T01:58:23;14.60;;;3.75;;
69226;SDS011;56334;52.398;7.552;2023-09-30T02:03:16;13.27;;;3.53;;
69226;SDS011;56334;52.398;7.552;2023-09-30T02:05:42;15.75;;;3.35;;
69226;SDS011;56334;52.398;7.552;2023-09-30T02:08:08;19.52;;;4.45;;
69226;SDS011;56334;52.398;7.552;2023-09-30T02:10:35;18.50;;;3.90;;
69226;SDS011;56334;52.398;7.552;2023-09-30T02:13:01;15.32;;;3.58;;
69226;SDS011;56334;52.398;7.552;2023-09-30T02:15:31;18.65;;;4.10;;
69226;SDS011;56334;52.398;7.552;2023-09-30T02:17:57;12.57;;;4.10;;
69226;SDS011;56334;52.398;7.552;2023-09-30T02:20:25;17.33;;;4.03;;
69226;SDS011;56334;52.398;7.552;2023-09-30T02:22:54;21.60;;;4.43;;
69226;SDS011;56334;52.398;7.552;2023-09-30T02:25:20;17.25;;;3.75;;
69226;SDS011;56334;52.398;7.552;2023-09-30T02:27:47;16.27;;;4.47;;
69226;SDS011;56334;52.398;7.552;2023-09-30T02:30:14;17.50;;;4.22;;
69226;SDS011;56334;52.398;7.552;2023-09-30T02:32:41;16.02;;;4.10;;
69226;SDS011;56334;52.398;7.552;2023-09-30T02:37:36;14.40;;;4.10;;
69226;SDS011;56334;52.398;7.552;2023-09-30T02:40:02;17.98;;;4.15;;
69226;SDS011;56334;52.398;7.552;2023-09-30T02:42:30;16.48;;;4.30;;
69226;SDS011;56334;52.398;7.552;2023-09-30T02:44:56;16.95;;;4.07;;
69226;SDS011;56334;52.398;7.552;2023-09-30T02:47:22;15.25;;;4.43;;
69226;SDS011;56334;52.398;7.552;2023-09-30T02:49:48;16.88;;;4.57;;
69226;SDS011;56334;52.398;7.552;2023-09-30T02:52:14;15.95;;;4.70;;
69226;SDS011;56334;52.398;7.552;2023-09-30T02:54:40;18.65;;;4.50;;
69226;SDS011;56334;52.398;7.552;2023-09-30T02:57:06;19.92;;;5.20;;
69226;SDS011;56334;52.398;7.552;2023-09-30T02:59:34;16.98;;;4.70;;
69226;SDS011;56334;52.398;7.552;2023-09-30T03:02:01;18.38;;;4.93;;
69226;SDS011;56334;52.398;7.552;2023-09-30T03:04:28;18.08;;;4.57;;
69226;SDS011;56334;52.398;7.552;2023-09-30T03:06:54;14.43;;;4.38;;
69226;SDS011;56334;52.398;7.552;2023-09-30T03:09:21;15.00;;;4.50;;
69226;SDS011;56334;52.398;7.552;2023-09-30T03:11:47;14.57;;;3.88;;
69226;SDS011;56334;52.398;7.552;2023-09-30T03:14:13;13.73;;;4.72;;
69226;SDS011;56334;52.398;7.552;2023-09-30T03:16:39;20.15;;;4.45;;
69226;SDS011;56334;52.398;7.552;2023-09-30T03:19:06;15.85;;;4.63;;
69226;SDS011;56334;52.398;7.552;2023-09-30T03:21:36;16.35;;;4.22;;
69226;SDS011;56334;52.398;7.552;2023-09-30T03:24:03;20.50;;;4.90;;
69226;SDS011;56334;52.398;7.552;2023-09-30T03:26:29;17.85;;;4.93;;
69226;SDS011;56334;52.398;7.552;2023-09-30T03:28:55;17.08;;;4.80;;
69226;SDS011;56334;52.398;7.552;2023-09-30T03:31:21;15.35;;;4.40;;
69226;SDS011;56334;52.398;7.552;2023-09-30T03:33:51;16.90;;;4.63;;
69226;SDS011;56334;52.398;7.552;2023-09-30T03:36:20;16.58;;;4.95;;
69226;SDS011;56334;52.398;7.552;2023-09-30T03:38:49;17.38;;;4.70;;
69226;SDS011;56334;52.398;7.552;2023-09-30T03:41:15;14.23;;;4.43;;
69226;SDS011;56334;52.398;7.552;2023-09-30T03:43:41;16.10;;;4.93;;
69226;SDS011;56334;52.398;7.552;2023-09-30T03:46:07;16.10;;;4.40;;
69226;SDS011;56334;52.398;7.552;2023-09-30T03:48:34;16.98;;;4.50;;
69226;SDS011;56334;52.398;7.552;2023-09-30T03:51:08;17.08;;;4.15;;
69226;SDS011;56334;52.398;7.552;2023-09-30T03:53:34;19.20;;;4.70;;
69226;SDS011;56334;52.398;7.552;2023-09-30T03:56:01;16.77;;;3.95;;
69226;SDS011;56334;52.398;7.552;2023-09-30T04:00:53;15.68;;;4.57;;
69226;SDS011;56334;52.398;7.552;2023-09-30T04:03:20;14.30;;;3.90;;
69226;SDS011;56334;52.398;7.552;2023-09-30T04:05:46;16.67;;;4.55;;
69226;SDS011;56334;52.398;7.552;2023-09-30T04:08:15;15.95;;;4.65;;
69226;SDS011;56334;52.398;7.552;2023-09-30T04:10:42;17.17;;;4.22;;
69226;SDS011;56334;52.398;7.552;2023-09-30T04:13:09;16.77;;;4.30;;
69226;SDS011;56334;52.398;7.552;2023-09-30T04:15:37;17.42;;;3.90;;
69226;SDS011;56334;52.398;7.552;2023-09-30T04:18:03;18.65;;;4.25;;
69226;SDS011;56334;52.398;7.552;2023-09-30T04:20:30;13.13;;;4.32;;
69226;SDS011;56334;52.398;7.552;2023-09-30T04:22:56;15.10;;;4.55;;
69226;SDS011;56334;52.398;7.552;2023-09-30T04:25:23;14.82;;;3.78;;
69226;SDS011;56334;52.398;7.552;2023-09-30T04:27:52;14.95;;;4.18;;
69226;SDS011;56334;52.398;7.552;2023-09-30T04:30:18;16.17;;;4.10;;
69226;SDS011;56334;52.398;7.552;2023-09-30T04:32:47;16.45;;;4.55;;
69226;SDS011;56334;52.398;7.552;2023-09-30T04:35:13;13.13;;;4.57;;
69226;SDS011;56334;52.398;7.552;2023-09-30T04:37:40;17.08;;;4.35;;
69226;SDS011;56334;52.398;7.552;2023-09-30T04:40:06;17.30;;;4.80;;
69226;SDS011;56334;52.398;7.552;2023-09-30T04:42:40;17.20;;;4.30;;
69226;SDS011;56334;52.398;7.552;2023-09-30T04:45:06;15.40;;;3.80;;
69226;SDS011;56334;52.398;7.552;2023-09-30T04:47:32;16.38;;;4.43;;
69226;SDS011;56334;52.398;7.552;2023-09-30T04:49:59;17.42;;;4.38;;
69226;SDS011;56334;52.398;7.552;2023-09-30T04:52:30;18.60;;;4.63;;
69226;SDS011;56334;52.398;7.552;2023-09-30T04:57:22;13.85;;;4.07;;
69226;SDS011;56334;52.398;7.552;2023-09-30T04:59:48;17.10;;;4.70;;
69226;SDS011;56334;52.398;7.552;2023-09-30T05:02:14;16.88;;;4.45;;
69226;SDS011;56334;52.398;7.552;2023-09-30T05:04:40;16.35;;;4.30;;
69226;SDS011;56334;52.398;7.552;2023-09-30T05:07:07;15.75;;;4.65;;
69226;SDS011;56334;52.398;7.552;2023-09-30T05:12:04;16.33;;;4.85;;
69226;SDS011;56334;52.398;7.552;2023-09-30T05:14:31;18.02;;;4.88;;
69226;SDS011;56334;52.398;7.552;2023-09-30T05:16:58;18.00;;;5.20;;
69226;SDS011;56334;52.398;7.552;2023-09-30T05:19:24;16.75;;;4.70;;
69226;SDS011;56334;52.398;7.552;2023-09-30T05:21:51;14.55;;;4.63;;
69226;SDS011;56334;52.398;7.552;2023-09-30T05:27:12;16.85;;;4.63;;
69226;SDS011;56334;52.398;7.552;2023-09-30T05:29:38;15.60;;;4.35;;
69226;SDS011;56334;52.398;7.552;2023-09-30T05:32:10;21.17;;;5.53;;
69226;SDS011;56334;52.398;7.552;2023-09-30T05:34:36;15.75;;;5.20;;
69226;SDS011;56334;52.398;7.552;2023-09-30T05:37:04;15.10;;;4.75;;
69226;SDS011;56334;52.398;7.552;2023-09-30T05:39:30;16.10;;;4.63;;
69226;SDS011;56334;52.398;7.552;2023-09-30T05:41:56;16.67;;;4.55;;
69226;SDS011;56334;52.398;7.552;2023-09-30T05:44:23;13.95;;;4.78;;
69226;SDS011;56334;52.398;7.552;2023-09-30T05:46:51;15.82;;;4.57;;
69226;SDS011;56334;52.398;7.552;2023-09-30T05:49:17;13.45;;;4.57;;
69226;SDS011;56334;52.398;7.552;2023-09-30T05:54:20;17.88;;;4.72;;
69226;SDS011;56334;52.398;7.552;2023-09-30T05:56:46;11.98;;;4.28;;
69226;SDS011;56334;52.398;7.552;2023-09-30T05:59:14;15.15;;;4.43;;
69226;SDS011;56334;52.398;7.552;2023-09-30T06:01:40;19.77;;;4.80;;
69226;SDS011;56334;52.398;7.552;2023-09-30T06:04:07;17.05;;;4.45;;
69226;SDS011;56334;52.398;7.552;2023-09-30T06:06:33;18.67;;;4.50;;
69226;SDS011;56334;52.398;7.552;2023-09-30T06:08:59;14.98;;;4.95;;
69226;SDS011;56334;52.398;7.552;2023-09-30T06:11:25;16.48;;;4.85;;
69226;SDS011;56334;52.398;7.552;2023-09-30T06:13:54;15.40;;;4.70;;
69226;SDS011;56334;52.398;7.552;2023-09-30T06:16:21;17.00;;;5.50;;
69226;SDS011;56334;52.398;7.552;2023-09-30T06:18:48;18.60;;;5.82;;
69226;SDS011;56334;52.398;7.552;2023-09-30T06:21:14;16.65;;;5.18;;
69226;SDS011;56334;52.398;7.552;2023-09-30T06:23:43;18.05;;;5.70;;
69226;SDS011;56334;52.398;7.552;2023-09-30T06:26:09;23.35;;;5.90;;
69226;SDS011;56334;52.398;7.552;2023-09-30T06:28:35;18.25;;;5.20;;
69226;SDS011;56334;52.398;7.552;2023-09-30T06:31:09;18.67;;;5.65;;
69226;SDS011;56334;52.398;7.552;2023-09-30T06:33:35;14.23;;;5.10;;
69226;SDS011;56334;52.398;7.552;2023-09-30T06:36:07;15.52;;;5.43;;
69226;SDS011;56334;52.398;7.552;2023-09-30T06:38:33;15.30;;;5.55;;
69226;SDS011;56334;52.398;7.552;2023-09-30T06:41:00;15.50;;;5.53;;
69226;SDS011;56334;52.398;7.552;2023-09-30T06:43:26;16.15;;;5.05;;
69226;SDS011;56334;52.398;7.552;2023-09-30T06:45:53;18.65;;;5.80;;
69226;SDS011;56334;52.398;7.552;2023-09-30T06:48:19;17.13;;;5.60;;
69226;SDS011;56334;52.398;7.552;2023-09-30T06:50:46;17.20;;;5.55;;
69226;SDS011;56334;52.398;7.552;2023-09-30T06:53:14;17.95;;;5.28;;
69226;SDS011;56334;52.398;7.552;2023-09-30T06:55:41;15.65;;;5.57;;
69226;SDS011;56334;52.398;7.552;2023-09-30T06:58:20;15.73;;;5.78;;
69226;SDS011;56334;52.398;7.552;2023-09-30T07:00:47;22.42;;;6.38;;
69226;SDS011;56334;52.398;7.552;2023-09-30T07:03:14;17.13;;;6.45;;
69226;SDS011;56334;52.398;7.552;2023-09-30T07:05:40;23.05;;;6.35;;
69226;SDS011;56334;52.398;7.552;2023-09-30T07:08:06;18.08;;;5.80;;
69226;SDS011;56334;52.398;7.552;2023-09-30T07:13:36;18.33;;;6.80;;
69226;SDS011;56334;52.398;7.552;2023-09-30T07:16:02;15.82;;;6.20;;
69226;SDS011;56334;52.398;7.552;2023-09-30T07:18:28;19.02;;;6.50;;
69226;SDS011;56334;52.398;7.552;2023-09-30T07:20:55;16.95;;;6.32;;
69226;SDS011;56334;52.398;7.552;2023-09-30T07:23:21;22.25;;;7.28;;
69226;SDS011;56334;52.398;7.552;2023-09-30T07:25:47;18.65;;;7.10;;
69226;SDS011;56334;52.398;7.552;2023-09-30T07:28:15;21.58;;;6.68;;
69226;SDS011;56334;52.398;7.552;2023-09-30T07:30:43;21.88;;;7.22;;
69226;SDS011;56334;52.398;7.552;2023-09-30T07:33:09;20.42;;;7.05;;
69226;SDS011;56334;52.398;7.552;2023-09-30T07:35:36;19.20;;;7.38;;
69226;SDS011;56334;52.398;7.552;2023-09-30T07:38:05;21.15;;;7.43;;
69226;SDS011;56334;52.398;7.552;2023-09-30T07:40:32;19.27;;;7.78;;
69226;SDS011;56334;52.398;7.552;2023-09-30T07:45:46;20.08;;;7.68;;
69226;SDS011;56334;52.398;7.552;2023-09-30T07:48:13;20.38;;;7.88;;
69226;SDS011;56334;52.398;7.552;2023-09-30T07:50:39;20.40;;;7.72;;
69226;SDS011;56334;52.398;7.552;2023-09-30T07:53:07;21.40;;;8.07;;
69226;SDS011;56334;52.398;7.552;2023-09-30T07:55:33;22.80;;;8.63;;
69226;SDS011;56334;52.398;7.552;2023-09-30T07:57:59;20.73;;;8.25;;
